createdAt,value
2022-12-14T00:02:12.774Z,8.67
2022-12-14T00:07:14.309Z,8.90
2022-12-14T00:12:15.983Z,8.67
2022-12-14T00:17:17.563Z,8.87
2022-12-14T00:22:19.623Z,6.60
2022-12-14T00:27:21.263Z,7.50
2022-12-14T00:32:22.863Z,8.27
2022-12-14T00:37:24.477Z,9.40
2022-12-14T00:42:26.118Z,8.70
2022-12-14T00:47:28.056Z,7.53
2022-12-14T00:52:29.669Z,7.90
2022-12-14T00:57:31.338Z,7.23
2022-12-14T01:02:33.057Z,7.83
2022-12-14T01:07:34.687Z,10.53
2022-12-14T01:12:36.762Z,9.03
2022-12-14T01:17:38.333Z,7.17
2022-12-14T01:22:40.020Z,8.43
2022-12-14T01:27:41.595Z,6.57
2022-12-14T01:32:43.165Z,7.73
2022-12-14T01:37:44.673Z,7.57
2022-12-14T01:42:46.309Z,8.10
2022-12-14T01:47:52.494Z,7.87
2022-12-14T01:52:58.348Z,7.30
2022-12-14T01:58:26.359Z,8.13
2022-12-14T02:03:34.480Z,8.93
2022-12-14T02:08:36.974Z,6.80
2022-12-14T02:13:40.735Z,6.90
2022-12-14T02:18:42.306Z,6.70
2022-12-14T02:23:57.915Z,7.70
2022-12-14T02:29:02.605Z,8.03
2022-12-14T02:34:35.563Z,7.10
2022-12-14T02:40:04.308Z,6.97
2022-12-14T02:45:31.556Z,6.97
2022-12-14T02:51:14.293Z,6.73
2022-12-14T02:56:20.069Z,6.93
2022-12-14T03:01:25.431Z,6.83
2022-12-14T03:06:27.096Z,6.77
2022-12-14T03:11:56.149Z,7.20
2022-12-14T03:17:02.844Z,7.23
2022-12-14T03:22:08.618Z,7.17
2022-12-14T03:27:17.678Z,7.33
2022-12-14T03:32:22.909Z,7.07
2022-12-14T03:37:54.977Z,6.80
2022-12-14T03:42:56.394Z,6.50
2022-12-14T03:48:30.267Z,6.37
2022-12-14T03:54:04.506Z,6.03
2022-12-14T03:59:22.804Z,9.03
2022-12-14T04:04:28.756Z,7.50
2022-12-14T04:09:30.284Z,6.17
2022-12-14T04:14:53.690Z,6.17
2022-12-14T04:20:01.247Z,6.67
2022-12-14T04:25:29.499Z,6.70
2022-12-14T04:30:33.829Z,6.33
2022-12-14T04:35:39.300Z,5.53
2022-12-14T04:40:48.063Z,6.10
2022-12-14T04:45:55.789Z,6.87
2022-12-14T04:51:09.487Z,5.97
2022-12-14T04:56:19.070Z,7.03
2022-12-14T05:01:39.744Z,6.70
2022-12-14T05:06:53.425Z,6.30
2022-12-14T05:12:16.171Z,7.63
2022-12-14T05:17:18.265Z,6.47
2022-12-14T05:22:20.791Z,7.20
2022-12-14T05:27:22.487Z,7.10
2022-12-14T05:32:24.066Z,6.40
2022-12-14T05:37:25.810Z,6.90
2022-12-14T05:42:27.379Z,6.77
2022-12-14T05:47:28.932Z,8.30
2022-12-14T05:52:30.659Z,6.70
2022-12-14T05:57:32.222Z,6.77
2022-12-14T06:02:33.875Z,7.53
2022-12-14T06:07:35.377Z,6.20
2022-12-14T06:12:36.929Z,6.07
2022-12-14T06:17:43.199Z,7.63
2022-12-14T06:22:47.706Z,6.37
2022-12-14T06:27:53.710Z,8.40
2022-12-14T06:32:55.349Z,5.90
2022-12-14T06:37:57.046Z,6.23
2022-12-14T06:42:58.575Z,7.60
2022-12-14T06:48:00.300Z,7.37
2022-12-14T06:53:01.995Z,6.83
2022-12-14T06:58:03.632Z,6.83
2022-12-14T07:03:05.275Z,6.37
2022-12-14T07:08:07.088Z,6.20
2022-12-14T07:13:08.683Z,9.03
2022-12-14T07:18:10.715Z,6.10
2022-12-14T07:23:12.241Z,7.10
2022-12-14T07:28:14.029Z,7.63
2022-12-14T07:33:15.532Z,8.00
2022-12-14T07:38:17.805Z,7.00
2022-12-14T07:43:19.494Z,6.30
2022-12-14T07:48:21.159Z,8.10
2022-12-14T07:53:22.730Z,7.43
2022-12-14T07:58:24.389Z,6.53
2022-12-14T08:03:26.240Z,7.97
2022-12-14T08:08:27.974Z,7.50
2022-12-14T08:13:30.269Z,7.27
2022-12-14T08:18:33.220Z,6.87
2022-12-14T08:23:35.163Z,6.87
2022-12-14T08:28:36.913Z,7.03
2022-12-14T08:33:39.569Z,7.37
2022-12-14T08:38:41.612Z,8.57
2022-12-14T08:43:43.281Z,9.33
2022-12-14T08:48:46.859Z,9.20
2022-12-14T08:53:48.917Z,9.00
2022-12-14T08:58:50.453Z,7.70
2022-12-14T09:03:52.084Z,8.53
2022-12-14T09:08:54.660Z,9.97
2022-12-14T09:13:56.457Z,8.97
2022-12-14T09:18:58.261Z,8.30
2022-12-14T09:24:00.205Z,8.67
2022-12-14T09:29:01.865Z,10.97
2022-12-14T09:34:03.984Z,10.20
2022-12-14T09:39:06.536Z,13.13
2022-12-14T09:44:10.595Z,9.57
2022-12-14T09:49:32.036Z,10.47
2022-12-14T09:54:36.569Z,9.50
2022-12-14T09:59:38.185Z,9.00
2022-12-14T10:05:06.232Z,11.40
2022-12-14T10:10:28.092Z,12.13
2022-12-14T10:15:41.409Z,9.90
2022-12-14T10:21:17.950Z,12.73
2022-12-14T10:26:23.317Z,11.97
2022-12-14T10:31:44.299Z,15.23
2022-12-14T10:36:54.369Z,11.93
2022-12-14T10:42:04.356Z,11.33
2022-12-14T10:47:20.375Z,10.70
2022-12-14T10:52:24.084Z,11.73
2022-12-14T10:57:27.359Z,12.30
2022-12-14T11:02:29.405Z,12.30
2022-12-14T11:07:34.114Z,11.37
2022-12-14T11:12:35.902Z,10.90
2022-12-14T11:17:40.886Z,18.07
2022-12-14T11:23:04.015Z,16.30
2022-12-14T11:28:17.626Z,11.03
2022-12-14T11:33:19.466Z,9.37
2022-12-14T11:38:23.030Z,10.67
2022-12-14T11:43:27.678Z,11.13
2022-12-14T11:48:30.207Z,10.10
2022-12-14T11:53:32.075Z,10.37
2022-12-14T11:58:37.862Z,9.13
2022-12-14T12:03:42.883Z,11.53
2022-12-14T12:08:44.736Z,17.83
2022-12-14T12:13:50.889Z,12.57
2022-12-14T12:19:11.011Z,9.20
2022-12-14T12:24:18.551Z,9.50
2022-12-14T12:29:32.055Z,10.03
2022-12-14T12:34:47.295Z,12.37
2022-12-14T12:39:55.537Z,10.53
2022-12-14T12:45:15.972Z,9.57
2022-12-14T12:50:23.261Z,10.77
2022-12-14T12:55:25.830Z,10.23
2022-12-14T13:00:28.066Z,10.10
2022-12-14T13:05:46.308Z,10.77
2022-12-14T13:16:18.627Z,10.97
2022-12-14T13:21:44.014Z,10.37
2022-12-14T13:27:04.587Z,10.80
2022-12-14T13:32:51.592Z,17.17
2022-12-14T13:38:21.312Z,17.83
2022-12-14T13:43:51.231Z,14.60
2022-12-14T13:48:55.455Z,12.53
2022-12-14T13:53:59.213Z,13.97
2022-12-14T13:59:03.826Z,17.53
2022-12-14T14:04:11.507Z,16.07
2022-12-14T14:09:35.135Z,14.67
2022-12-14T14:14:40.769Z,14.30
2022-12-14T14:19:42.581Z,16.87
2022-12-14T14:24:57.680Z,11.40
2022-12-14T14:29:59.316Z,15.83
2022-12-14T14:35:03.880Z,14.00
2022-12-14T14:40:44.301Z,15.47
2022-12-14T14:45:57.780Z,14.07
2022-12-14T14:51:20.508Z,13.13
2022-12-14T14:56:37.178Z,13.50
2022-12-14T15:01:43.465Z,15.63
2022-12-14T15:06:47.723Z,14.47
2022-12-14T15:11:54.607Z,12.13
2022-12-14T15:16:56.132Z,13.57
2022-12-14T15:22:01.154Z,14.10
2022-12-14T15:27:30.521Z,17.47
2022-12-14T15:32:32.920Z,14.97
2022-12-14T15:37:42.722Z,11.93
2022-12-14T15:42:49.583Z,13.97
2022-12-14T15:47:51.783Z,13.00
2022-12-14T15:52:58.559Z,16.97
2022-12-14T15:58:06.797Z,12.47
2022-12-14T16:03:35.829Z,13.37
2022-12-14T16:08:41.139Z,14.63
2022-12-14T16:13:44.286Z,13.10
2022-12-14T16:18:50.768Z,14.03
2022-12-14T16:23:53.103Z,19.37
2022-12-14T16:29:23.064Z,15.50
2022-12-14T16:34:27.519Z,14.70
2022-12-14T16:39:38.057Z,14.27
2022-12-14T16:44:40.168Z,16.33
2022-12-14T16:49:42.780Z,14.30
2022-12-14T16:55:12.079Z,13.07
2022-12-14T17:00:24.975Z,22.03
2022-12-14T17:05:34.035Z,37.83
2022-12-14T17:10:37.968Z,34.47
2022-12-14T17:16:02.500Z,19.57
2022-12-14T17:21:05.370Z,20.43
2022-12-14T17:26:09.280Z,15.30
2022-12-14T17:31:11.711Z,15.10
2022-12-14T17:36:13.318Z,19.20
2022-12-14T17:41:25.131Z,19.23
2022-12-14T17:46:26.943Z,16.57
2022-12-14T17:51:29.972Z,19.20
2022-12-14T17:56:31.937Z,19.17
2022-12-14T18:01:33.680Z,18.53
2022-12-14T18:06:35.683Z,20.80
2022-12-14T18:11:45.074Z,20.00
2022-12-14T18:16:56.193Z,23.00
2022-12-14T18:21:58.046Z,18.87
2022-12-14T18:26:59.726Z,19.17
2022-12-14T18:32:01.544Z,19.53
2022-12-14T18:37:03.132Z,21.20
2022-12-14T18:42:06.044Z,25.17
2022-12-14T18:47:39.564Z,22.80
2022-12-14T18:52:30.053Z,19.90
2022-12-14T18:57:32.015Z,15.80
2022-12-14T19:02:33.777Z,19.10
2022-12-14T19:07:35.570Z,23.80
2022-12-14T19:12:37.169Z,26.60
2022-12-14T19:17:38.861Z,22.10
2022-12-14T19:22:41.044Z,23.13
2022-12-14T19:33:05.561Z,27.37
2022-12-14T19:38:09.325Z,29.37
2022-12-14T19:43:10.932Z,40.47
2022-12-14T19:48:13.518Z,40.57
2022-12-14T19:53:19.979Z,27.03
2022-12-14T19:58:25.447Z,26.63
2022-12-14T20:03:27.561Z,21.27
2022-12-14T20:08:32.552Z,17.27
2022-12-14T20:13:34.671Z,14.80
2022-12-14T20:18:36.625Z,14.03
2022-12-14T20:23:39.010Z,15.30
2022-12-14T20:28:40.880Z,19.83
2022-12-14T20:33:43.315Z,19.03
2022-12-14T20:38:46.351Z,22.37
2022-12-14T20:43:51.774Z,18.97
2022-12-14T20:48:53.984Z,19.77
2022-12-14T20:53:56.403Z,17.33
2022-12-14T20:58:58.119Z,18.10
2022-12-14T21:04:00.951Z,16.57
2022-12-14T21:09:04.996Z,17.33
2022-12-14T21:14:06.728Z,18.03
2022-12-14T21:19:08.445Z,23.70
2022-12-14T21:24:12.796Z,23.77
2022-12-14T21:29:19.303Z,19.60
2022-12-14T21:34:22.063Z,20.10
2022-12-14T21:39:23.819Z,25.07
2022-12-14T21:44:28.551Z,23.90
2022-12-14T21:49:30.216Z,22.03
2022-12-14T21:54:32.020Z,21.07
2022-12-14T21:59:38.674Z,21.17
2022-12-14T22:04:40.445Z,22.07
2022-12-14T22:09:42.249Z,28.70
2022-12-14T22:14:43.881Z,26.10
2022-12-14T22:19:45.444Z,29.87
2022-12-14T22:24:51.143Z,27.87
2022-12-14T22:29:52.983Z,20.83
2022-12-14T22:34:54.608Z,23.53
2022-12-14T22:39:56.481Z,19.53
2022-12-14T22:44:58.154Z,22.47
2022-12-14T22:49:59.980Z,22.40
2022-12-14T22:55:02.309Z,15.43
2022-12-14T23:00:07.671Z,18.27
2022-12-14T23:05:10.495Z,16.43
2022-12-14T23:10:30.584Z,19.30
2022-12-14T23:15:50.673Z,18.27
2022-12-14T23:21:11.106Z,15.03
2022-12-14T23:26:31.211Z,17.07
2022-12-14T23:31:51.441Z,17.90
2022-12-14T23:37:15.015Z,18.80
2022-12-14T23:42:39.672Z,17.77
2022-12-14T23:47:59.826Z,20.10
2022-12-14T23:53:24.634Z,17.67
2022-12-14T23:58:44.839Z,19.23
